sensor_id;sensor_type;location;lat;lon;timestamp;temperature;humidity
871;DHT22;422;51.280;7.236;2023-07-13T00:00:25;17.10;99.90
871;DHT22;422;51.280;7.236;2023-07-13T00:02:52;17.10;99.90
871;DHT22;422;51.280;7.236;2023-07-13T00:05:20;17.10;99.90
871;DHT22;422;51.280;7.236;2023-07-13T00:07:47;17.10;99.90
871;DHT22;422;51.280;7.236;2023-07-13T00:10:15;17.00;99.90
871;DHT22;422;51.280;7.236;2023-07-13T00:12:44;17.00;99.90
871;DHT22;422;51.280;7.236;2023-07-13T00:15:15;16.90;99.90
871;DHT22;422;51.280;7.236;2023-07-13T00:17:47;17.00;99.90
871;DHT22;422;51.280;7.236;2023-07-13T00:20:14;17.00;99.90
871;DHT22;422;51.280;7.236;2023-07-13T00:22:41;17.00;99.90
871;DHT22;422;51.280;7.236;2023-07-13T00:25:09;16.90;99.90
871;DHT22;422;51.280;7.236;2023-07-13T00:27:36;16.90;99.90
871;DHT22;422;51.280;7.236;2023-07-13T00:30:06;16.70;99.90
871;DHT22;422;51.280;7.236;2023-07-13T00:32:34;16.70;99.90
871;DHT22;422;51.280;7.236;2023-07-13T00:35:02;16.60;99.90
871;DHT22;422;51.280;7.236;2023-07-13T00:37:30;16.50;99.90
871;DHT22;422;51.280;7.236;2023-07-13T00:39:57;16.40;99.90
871;DHT22;422;51.280;7.236;2023-07-13T00:42:24;16.40;99.90
871;DHT22;422;51.280;7.236;2023-07-13T00:45:06;16.30;99.90
871;DHT22;422;51.280;7.236;2023-07-13T00:47:34;16.30;99.90
871;DHT22;422;51.280;7.236;2023-07-13T00:50:02;16.20;99.90
871;DHT22;422;51.280;7.236;2023-07-13T00:52:30;16.20;99.90
871;DHT22;422;51.280;7.236;2023-07-13T00:54:58;16.10;99.90
871;DHT22;422;51.280;7.236;2023-07-13T00:57:26;16.10;99.90
871;DHT22;422;51.280;7.236;2023-07-13T00:59:57;16.00;99.90
871;DHT22;422;51.280;7.236;2023-07-13T01:02:28;16.00;99.90
871;DHT22;422;51.280;7.236;2023-07-13T01:04:56;16.00;99.90
871;DHT22;422;51.280;7.236;2023-07-13T01:07:23;16.00;99.90
871;DHT22;422;51.280;7.236;2023-07-13T01:09:51;16.00;99.90
871;DHT22;422;51.280;7.236;2023-07-13T01:12:18;16.00;99.90
871;DHT22;422;51.280;7.236;2023-07-13T01:14:45;16.00;99.90
871;DHT22;422;51.280;7.236;2023-07-13T01:17:20;15.90;99.90
871;DHT22;422;51.280;7.236;2023-07-13T01:19:50;15.90;99.90
871;DHT22;422;51.280;7.236;2023-07-13T01:22:46;15.90;99.90
871;DHT22;422;51.280;7.236;2023-07-13T01:25:13;15.90;99.90
871;DHT22;422;51.280;7.236;2023-07-13T01:27:41;15.80;99.90
871;DHT22;422;51.280;7.236;2023-07-13T01:30:08;15.80;99.90
871;DHT22;422;51.280;7.236;2023-07-13T01:32:35;15.90;99.90
871;DHT22;422;51.280;7.236;2023-07-13T01:35:03;15.90;99.90
871;DHT22;422;51.280;7.236;2023-07-13T01:37:30;15.80;99.90
871;DHT22;422;51.280;7.236;2023-07-13T01:40:00;15.80;99.90
871;DHT22;422;51.280;7.236;2023-07-13T01:42:28;15.80;99.90
871;DHT22;422;51.280;7.236;2023-07-13T01:44:55;15.80;99.90
871;DHT22;422;51.280;7.236;2023-07-13T01:47:22;15.90;99.90
871;DHT22;422;51.280;7.236;2023-07-13T01:49:51;15.80;99.90
871;DHT22;422;51.280;7.236;2023-07-13T01:52:18;15.80;99.90
871;DHT22;422;51.280;7.236;2023-07-13T01:54:45;15.80;99.90
871;DHT22;422;51.280;7.236;2023-07-13T01:57:14;15.80;99.90
871;DHT22;422;51.280;7.236;2023-07-13T01:59:41;15.80;99.90
871;DHT22;422;51.280;7.236;2023-07-13T02:02:08;15.70;99.90
871;DHT22;422;51.280;7.236;2023-07-13T02:04:36;15.70;99.90
871;DHT22;422;51.280;7.236;2023-07-13T02:07:04;15.60;99.90
871;DHT22;422;51.280;7.236;2023-07-13T02:09:31;15.60;99.90
871;DHT22;422;51.280;7.236;2023-07-13T02:11:58;15.50;99.90
871;DHT22;422;51.280;7.236;2023-07-13T02:14:27;15.50;99.90
871;DHT22;422;51.280;7.236;2023-07-13T02:16:54;15.50;99.90
871;DHT22;422;51.280;7.236;2023-07-13T02:19:21;15.50;99.90
871;DHT22;422;51.280;7.236;2023-07-13T02:21:48;15.50;99.90
871;DHT22;422;51.280;7.236;2023-07-13T02:24:15;15.40;99.90
871;DHT22;422;51.280;7.236;2023-07-13T02:26:44;15.40;99.90
871;DHT22;422;51.280;7.236;2023-07-13T02:29:12;15.40;99.90
871;DHT22;422;51.280;7.236;2023-07-13T02:31:40;15.40;99.90
871;DHT22;422;51.280;7.236;2023-07-13T02:34:07;15.30;99.90
871;DHT22;422;51.280;7.236;2023-07-13T02:36:34;15.30;99.90
871;DHT22;422;51.280;7.236;2023-07-13T02:39:03;15.30;99.90
871;DHT22;422;51.280;7.236;2023-07-13T02:41:31;15.30;99.90
871;DHT22;422;51.280;7.236;2023-07-13T02:43:58;15.30;99.90
871;DHT22;422;51.280;7.236;2023-07-13T02:46:29;15.30;99.90
871;DHT22;422;51.280;7.236;2023-07-13T02:48:57;15.40;99.90
871;DHT22;422;51.280;7.236;2023-07-13T02:51:25;15.40;99.90
871;DHT22;422;51.280;7.236;2023-07-13T02:53:52;15.30;99.90
871;DHT22;422;51.280;7.236;2023-07-13T02:56:22;15.30;99.90
871;DHT22;422;51.280;7.236;2023-07-13T02:58:49;15.40;99.90
871;DHT22;422;51.280;7.236;2023-07-13T03:01:16;15.40;99.90
871;DHT22;422;51.280;7.236;2023-07-13T03:03:45;15.50;99.90
871;DHT22;422;51.280;7.236;2023-07-13T03:06:14;15.50;99.90
871;DHT22;422;51.280;7.236;2023-07-13T03:08:43;15.50;99.90
871;DHT22;422;51.280;7.236;2023-07-13T03:11:13;15.50;99.90
871;DHT22;422;51.280;7.236;2023-07-13T03:13:41;15.40;99.90
871;DHT22;422;51.280;7.236;2023-07-13T03:16:10;15.40;99.90
871;DHT22;422;51.280;7.236;2023-07-13T03:18:37;15.40;99.90
871;DHT22;422;51.280;7.236;2023-07-13T03:21:05;15.30;99.90
871;DHT22;422;51.280;7.236;2023-07-13T03:23:34;15.30;99.90
871;DHT22;422;51.280;7.236;2023-07-13T03:26:03;15.40;99.90
871;DHT22;422;51.280;7.236;2023-07-13T03:28:31;15.40;99.90
871;DHT22;422;51.280;7.236;2023-07-13T03:31:02;15.40;99.90
871;DHT22;422;51.280;7.236;2023-07-13T03:33:30;15.40;99.90
871;DHT22;422;51.280;7.236;2023-07-13T03:35:58;15.40;99.90
871;DHT22;422;51.280;7.236;2023-07-13T03:38:25;15.40;99.90
871;DHT22;422;51.280;7.236;2023-07-13T03:40:54;15.30;99.90
871;DHT22;422;51.280;7.236;2023-07-13T03:43:21;15.40;99.90
871;DHT22;422;51.280;7.236;2023-07-13T03:45:48;15.40;99.90
871;DHT22;422;51.280;7.236;2023-07-13T03:48:15;15.40;99.90
871;DHT22;422;51.280;7.236;2023-07-13T03:50:42;15.40;99.90
871;DHT22;422;51.280;7.236;2023-07-13T03:53:10;15.30;99.90
871;DHT22;422;51.280;7.236;2023-07-13T03:55:37;15.30;99.90
871;DHT22;422;51.280;7.236;2023-07-13T03:58:28;15.30;99.90
871;DHT22;422;51.280;7.236;2023-07-13T04:00:55;15.30;99.90
871;DHT22;422;51.280;7.236;2023-07-13T04:03:23;15.40;99.90
871;DHT22;422;51.280;7.236;2023-07-13T04:05:50;15.40;99.90
871;DHT22;422;51.280;7.236;2023-07-13T04:08:17;15.40;99.90
871;DHT22;422;51.280;7.236;2023-07-13T04:10:44;15.40;99.90
871;DHT22;422;51.280;7.236;2023-07-13T04:13:12;15.40;99.90
871;DHT22;422;51.280;7.236;2023-07-13T04:15:41;15.40;99.90
871;DHT22;422;51.280;7.236;2023-07-13T04:18:09;15.50;99.90
871;DHT22;422;51.280;7.236;2023-07-13T04:20:36;15.50;99.90
871;DHT22;422;51.280;7.236;2023-07-13T04:23:03;15.50;99.90
871;DHT22;422;51.280;7.236;2023-07-13T04:25:31;15.50;99.90
871;DHT22;422;51.280;7.236;2023-07-13T04:27:58;15.50;99.90
871;DHT22;422;51.280;7.236;2023-07-13T04:30:25;15.50;99.90
871;DHT22;422;51.280;7.236;2023-07-13T04:32:53;15.50;99.90
871;DHT22;422;51.280;7.236;2023-07-13T04:35:21;15.50;99.90
871;DHT22;422;51.280;7.236;2023-07-13T04:37:48;15.40;99.90
871;DHT22;422;51.280;7.236;2023-07-13T04:40:16;15.50;99.90
871;DHT22;422;51.280;7.236;2023-07-13T04:42:44;15.60;99.90
871;DHT22;422;51.280;7.236;2023-07-13T04:45:11;15.60;99.90
871;DHT22;422;51.280;7.236;2023-07-13T04:47:39;15.60;99.90
871;DHT22;422;51.280;7.236;2023-07-13T04:50:08;15.50;99.90
871;DHT22;422;51.280;7.236;2023-07-13T04:52:37;15.50;99.90
871;DHT22;422;51.280;7.236;2023-07-13T04:55:03;15.60;99.90
871;DHT22;422;51.280;7.236;2023-07-13T04:57:34;15.60;99.90
871;DHT22;422;51.280;7.236;2023-07-13T05:00:01;15.60;99.90
871;DHT22;422;51.280;7.236;2023-07-13T05:02:31;15.70;99.90
871;DHT22;422;51.280;7.236;2023-07-13T05:04:59;15.70;99.90
871;DHT22;422;51.280;7.236;2023-07-13T05:07:27;15.60;99.90
871;DHT22;422;51.280;7.236;2023-07-13T05:09:54;15.70;99.90
871;DHT22;422;51.280;7.236;2023-07-13T05:12:21;15.70;99.90
871;DHT22;422;51.280;7.236;2023-07-13T05:14:48;15.70;99.90
871;DHT22;422;51.280;7.236;2023-07-13T05:17:16;15.70;99.90
871;DHT22;422;51.280;7.236;2023-07-13T05:19:43;15.70;99.90
871;DHT22;422;51.280;7.236;2023-07-13T05:22:10;15.70;99.90
871;DHT22;422;51.280;7.236;2023-07-13T05:24:38;15.80;99.90
871;DHT22;422;51.280;7.236;2023-07-13T05:27:06;15.90;99.90
871;DHT22;422;51.280;7.236;2023-07-13T05:29:33;15.90;99.90
871;DHT22;422;51.280;7.236;2023-07-13T05:32:00;16.00;99.90
871;DHT22;422;51.280;7.236;2023-07-13T05:34:27;16.00;99.90
871;DHT22;422;51.280;7.236;2023-07-13T05:36:55;16.00;99.90
871;DHT22;422;51.280;7.236;2023-07-13T05:39:22;16.20;99.90
871;DHT22;422;51.280;7.236;2023-07-13T05:41:50;16.30;99.90
871;DHT22;422;51.280;7.236;2023-07-13T05:44:17;16.50;99.90
871;DHT22;422;51.280;7.236;2023-07-13T05:46:45;16.70;99.90
871;DHT22;422;51.280;7.236;2023-07-13T05:49:12;16.80;99.90
871;DHT22;422;51.280;7.236;2023-07-13T05:51:39;16.80;99.90
871;DHT22;422;51.280;7.236;2023-07-13T05:54:06;16.80;99.90
871;DHT22;422;51.280;7.236;2023-07-13T05:56:33;16.80;99.90
871;DHT22;422;51.280;7.236;2023-07-13T05:59:01;16.70;99.90
871;DHT22;422;51.280;7.236;2023-07-13T06:01:30;16.80;99.90
871;DHT22;422;51.280;7.236;2023-07-13T06:03:57;16.90;99.90
871;DHT22;422;51.280;7.236;2023-07-13T06:06:24;16.80;99.90
871;DHT22;422;51.280;7.236;2023-07-13T06:08:51;16.90;99.90
871;DHT22;422;51.280;7.236;2023-07-13T06:11:20;17.00;99.90
871;DHT22;422;51.280;7.236;2023-07-13T06:13:48;17.20;99.90
871;DHT22;422;51.280;7.236;2023-07-13T06:16:17;17.40;99.90
871;DHT22;422;51.280;7.236;2023-07-13T06:18:44;17.50;99.90
871;DHT22;422;51.280;7.236;2023-07-13T06:21:13;17.80;99.90
871;DHT22;422;51.280;7.236;2023-07-13T06:23:41;17.80;99.90
871;DHT22;422;51.280;7.236;2023-07-13T06:26:09;17.90;99.90
871;DHT22;422;51.280;7.236;2023-07-13T06:28:37;17.80;99.90
871;DHT22;422;51.280;7.236;2023-07-13T06:31:06;17.80;99.90
871;DHT22;422;51.280;7.236;2023-07-13T06:33:35;17.70;99.90
871;DHT22;422;51.280;7.236;2023-07-13T06:36:03;17.50;99.90
871;DHT22;422;51.280;7.236;2023-07-13T06:38:31;17.30;99.90
871;DHT22;422;51.280;7.236;2023-07-13T06:40:58;17.60;99.90
871;DHT22;422;51.280;7.236;2023-07-13T06:43:25;17.80;99.90
871;DHT22;422;51.280;7.236;2023-07-13T06:45:55;17.80;99.90
871;DHT22;422;51.280;7.236;2023-07-13T06:48:23;18.20;99.90
871;DHT22;422;51.280;7.236;2023-07-13T06:50:51;18.40;99.90
871;DHT22;422;51.280;7.236;2023-07-13T06:53:19;18.10;99.90
871;DHT22;422;51.280;7.236;2023-07-13T06:55:47;18.40;99.90
871;DHT22;422;51.280;7.236;2023-07-13T06:58:15;18.70;99.90
871;DHT22;422;51.280;7.236;2023-07-13T07:00:43;18.80;99.90
871;DHT22;422;51.280;7.236;2023-07-13T07:03:10;19.10;99.90
871;DHT22;422;51.280;7.236;2023-07-13T07:05:37;18.50;99.90
871;DHT22;422;51.280;7.236;2023-07-13T07:08:06;18.50;99.90
871;DHT22;422;51.280;7.236;2023-07-13T07:10:34;18.10;99.90
871;DHT22;422;51.280;7.236;2023-07-13T07:13:02;17.90;99.90
871;DHT22;422;51.280;7.236;2023-07-13T07:15:30;17.90;99.90
871;DHT22;422;51.280;7.236;2023-07-13T07:17:57;17.80;99.90
871;DHT22;422;51.280;7.236;2023-07-13T07:20:24;17.90;99.90
871;DHT22;422;51.280;7.236;2023-07-13T07:22:52;17.90;99.90
871;DHT22;422;51.280;7.236;2023-07-13T07:25:20;17.90;99.90
871;DHT22;422;51.280;7.236;2023-07-13T07:27:47;18.20;99.90
871;DHT22;422;51.280;7.236;2023-07-13T07:30:14;17.90;99.90
871;DHT22;422;51.280;7.236;2023-07-13T07:32:41;18.00;99.90
871;DHT22;422;51.280;7.236;2023-07-13T07:35:08;18.30;99.90
871;DHT22;422;51.280;7.236;2023-07-13T07:37:36;18.70;99.90
871;DHT22;422;51.280;7.236;2023-07-13T07:40:03;19.00;99.90
871;DHT22;422;51.280;7.236;2023-07-13T07:42:32;19.20;99.90
871;DHT22;422;51.280;7.236;2023-07-13T07:44:59;19.30;99.90
871;DHT22;422;51.280;7.236;2023-07-13T07:47:26;18.90;99.90
871;DHT22;422;51.280;7.236;2023-07-13T07:49:53;19.00;99.90
871;DHT22;422;51.280;7.236;2023-07-13T07:52:21;19.00;99.90
871;DHT22;422;51.280;7.236;2023-07-13T07:54:48;19.10;99.90
871;DHT22;422;51.280;7.236;2023-07-13T07:57:15;19.50;99.90
871;DHT22;422;51.280;7.236;2023-07-13T07:59:43;19.60;99.90
871;DHT22;422;51.280;7.236;2023-07-13T08:02:11;19.50;99.90
871;DHT22;422;51.280;7.236;2023-07-13T08:04:38;19.40;99.90
871;DHT22;422;51.280;7.236;2023-07-13T08:07:05;19.60;99.90
871;DHT22;422;51.280;7.236;2023-07-13T08:09:33;19.80;99.90
871;DHT22;422;51.280;7.236;2023-07-13T08:12:00;19.80;99.90
871;DHT22;422;51.280;7.236;2023-07-13T08:14:27;20.00;99.90
871;DHT22;422;51.280;7.236;2023-07-13T08:16:56;19.90;99.90
871;DHT22;422;51.280;7.236;2023-07-13T08:19:24;19.90;99.90
871;DHT22;422;51.280;7.236;2023-07-13T08:21:51;20.00;99.90
871;DHT22;422;51.280;7.236;2023-07-13T08:24:18;20.40;99.90
871;DHT22;422;51.280;7.236;2023-07-13T08:26:48;20.10;99.90
871;DHT22;422;51.280;7.236;2023-07-13T08:29:15;20.30;99.90
871;DHT22;422;51.280;7.236;2023-07-13T08:31:42;20.20;99.90
871;DHT22;422;51.280;7.236;2023-07-13T08:34:12;20.40;99.90
871;DHT22;422;51.280;7.236;2023-07-13T08:36:40;19.90;99.90
871;DHT22;422;51.280;7.236;2023-07-13T08:39:07;20.20;99.90
871;DHT22;422;51.280;7.236;2023-07-13T08:41:35;20.50;99.90
871;DHT22;422;51.280;7.236;2023-07-13T08:44:05;21.00;99.90
871;DHT22;422;51.280;7.236;2023-07-13T08:46:37;21.50;99.90
871;DHT22;422;51.280;7.236;2023-07-13T08:49:11;21.90;99.90
871;DHT22;422;51.280;7.236;2023-07-13T08:51:42;22.00;99.90
871;DHT22;422;51.280;7.236;2023-07-13T08:54:19;21.90;99.90
871;DHT22;422;51.280;7.236;2023-07-13T08:56:49;22.20;99.90
871;DHT22;422;51.280;7.236;2023-07-13T08:59:20;22.50;99.90
871;DHT22;422;51.280;7.236;2023-07-13T09:02:09;22.70;99.90
871;DHT22;422;51.280;7.236;2023-07-13T09:04:46;22.50;99.90
871;DHT22;422;51.280;7.236;2023-07-13T09:07:19;22.10;99.90
871;DHT22;422;51.280;7.236;2023-07-13T09:09:55;21.70;99.90
871;DHT22;422;51.280;7.236;2023-07-13T09:12:30;21.50;99.90
871;DHT22;422;51.280;7.236;2023-07-13T09:15:00;21.10;99.90
871;DHT22;422;51.280;7.236;2023-07-13T09:17:34;21.50;99.90
871;DHT22;422;51.280;7.236;2023-07-13T09:20:10;21.70;99.90
871;DHT22;422;51.280;7.236;2023-07-13T09:22:40;22.10;99.90
871;DHT22;422;51.280;7.236;2023-07-13T09:25:23;22.30;99.90
871;DHT22;422;51.280;7.236;2023-07-13T09:27:56;22.60;99.90
871;DHT22;422;51.280;7.236;2023-07-13T09:30:33;22.50;99.90
871;DHT22;422;51.280;7.236;2023-07-13T09:33:04;22.70;99.90
871;DHT22;422;51.280;7.236;2023-07-13T09:35:34;23.00;99.90
871;DHT22;422;51.280;7.236;2023-07-13T09:38:11;23.20;99.90
871;DHT22;422;51.280;7.236;2023-07-13T09:40:47;23.00;99.90
871;DHT22;422;51.280;7.236;2023-07-13T09:43:17;23.00;99.90
871;DHT22;422;51.280;7.236;2023-07-13T09:45:46;23.50;99.90
871;DHT22;422;51.280;7.236;2023-07-13T09:48:16;23.80;99.90
871;DHT22;422;51.280;7.236;2023-07-13T09:50:46;23.70;99.90
871;DHT22;422;51.280;7.236;2023-07-13T09:53:14;24.40;99.90
871;DHT22;422;51.280;7.236;2023-07-13T09:55:43;24.80;99.90
871;DHT22;422;51.280;7.236;2023-07-13T09:58:13;24.90;99.90
871;DHT22;422;51.280;7.236;2023-07-13T10:00:41;25.00;99.90
871;DHT22;422;51.280;7.236;2023-07-13T10:03:17;24.80;99.90
871;DHT22;422;51.280;7.236;2023-07-13T10:05:49;24.90;99.90
871;DHT22;422;51.280;7.236;2023-07-13T10:08:21;24.00;99.90
871;DHT22;422;51.280;7.236;2023-07-13T10:10:53;23.40;99.90
871;DHT22;422;51.280;7.236;2023-07-13T10:13:30;23.40;99.90
871;DHT22;422;51.280;7.236;2023-07-13T10:15:59;23.90;99.90
871;DHT22;422;51.280;7.236;2023-07-13T10:18:26;24.10;99.90
871;DHT22;422;51.280;7.236;2023-07-13T10:21:08;24.30;99.90
871;DHT22;422;51.280;7.236;2023-07-13T10:23:37;23.90;99.90
871;DHT22;422;51.280;7.236;2023-07-13T10:26:07;23.70;99.90
871;DHT22;422;51.280;7.236;2023-07-13T10:28:40;23.70;99.90
871;DHT22;422;51.280;7.236;2023-07-13T10:31:12;23.70;99.90
871;DHT22;422;51.280;7.236;2023-07-13T10:33:40;24.10;99.90
871;DHT22;422;51.280;7.236;2023-07-13T10:36:15;24.00;99.90
871;DHT22;422;51.280;7.236;2023-07-13T10:38:44;23.30;99.90
871;DHT22;422;51.280;7.236;2023-07-13T10:41:17;22.90;99.90
871;DHT22;422;51.280;7.236;2023-07-13T10:43:47;23.30;99.90
871;DHT22;422;51.280;7.236;2023-07-13T10:46:19;24.40;99.90
871;DHT22;422;51.280;7.236;2023-07-13T10:48:49;24.40;99.90
871;DHT22;422;51.280;7.236;2023-07-13T10:51:19;24.50;99.90
871;DHT22;422;51.280;7.236;2023-07-13T10:53:48;24.60;99.90
871;DHT22;422;51.280;7.236;2023-07-13T10:56:35;25.30;99.90
871;DHT22;422;51.280;7.236;2023-07-13T10:59:09;24.80;99.90
871;DHT22;422;51.280;7.236;2023-07-13T11:01:40;24.90;99.90
871;DHT22;422;51.280;7.236;2023-07-13T11:04:13;25.10;99.90
871;DHT22;422;51.280;7.236;2023-07-13T11:06:43;25.30;99.90
871;DHT22;422;51.280;7.236;2023-07-13T11:09:40;25.50;99.90
871;DHT22;422;51.280;7.236;2023-07-13T11:12:28;24.80;99.90
871;DHT22;422;51.280;7.236;2023-07-13T11:15:06;24.50;99.90
871;DHT22;422;51.280;7.236;2023-07-13T11:17:46;24.40;99.90
871;DHT22;422;51.280;7.236;2023-07-13T11:20:32;24.20;99.90
871;DHT22;422;51.280;7.236;2023-07-13T11:23:29;23.80;99.90
871;DHT22;422;51.280;7.236;2023-07-13T11:25:58;23.50;99.90
871;DHT22;422;51.280;7.236;2023-07-13T11:28:30;23.20;99.90
871;DHT22;422;51.280;7.236;2023-07-13T11:31:03;23.70;99.90
871;DHT22;422;51.280;7.236;2023-07-13T11:34:00;23.60;99.90
871;DHT22;422;51.280;7.236;2023-07-13T11:36:32;22.80;99.90
871;DHT22;422;51.280;7.236;2023-07-13T11:39:13;23.00;99.90
871;DHT22;422;51.280;7.236;2023-07-13T11:41:45;22.50;99.90
871;DHT22;422;51.280;7.236;2023-07-13T11:44:16;22.60;99.90
871;DHT22;422;51.280;7.236;2023-07-13T11:46:49;23.00;99.90
871;DHT22;422;51.280;7.236;2023-07-13T11:49:17;23.10;99.90
871;DHT22;422;51.280;7.236;2023-07-13T11:51:45;24.00;99.90
871;DHT22;422;51.280;7.236;2023-07-13T11:54:25;24.80;99.90
871;DHT22;422;51.280;7.236;2023-07-13T11:56:54;25.60;99.90
871;DHT22;422;51.280;7.236;2023-07-13T11:59:21;26.20;99.90
871;DHT22;422;51.280;7.236;2023-07-13T12:01:51;26.70;99.90
871;DHT22;422;51.280;7.236;2023-07-13T12:04:22;26.50;99.90
871;DHT22;422;51.280;7.236;2023-07-13T12:06:56;26.90;99.90
871;DHT22;422;51.280;7.236;2023-07-13T12:09:27;26.90;99.90
871;DHT22;422;51.280;7.236;2023-07-13T12:11:57;27.00;99.90
871;DHT22;422;51.280;7.236;2023-07-13T12:14:25;26.30;99.90
871;DHT22;422;51.280;7.236;2023-07-13T12:16:53;26.50;99.90
871;DHT22;422;51.280;7.236;2023-07-13T12:19:26;26.80;99.90
871;DHT22;422;51.280;7.236;2023-07-13T12:21:56;27.00;99.90
871;DHT22;422;51.280;7.236;2023-07-13T12:24:25;27.10;99.90
871;DHT22;422;51.280;7.236;2023-07-13T12:26:54;27.00;99.90
871;DHT22;422;51.280;7.236;2023-07-13T12:29:22;27.10;99.90
871;DHT22;422;51.280;7.236;2023-07-13T12:31:50;27.30;99.90
871;DHT22;422;51.280;7.236;2023-07-13T12:34:19;27.30;99.90
871;DHT22;422;51.280;7.236;2023-07-13T12:36:49;26.90;99.90
871;DHT22;422;51.280;7.236;2023-07-13T12:39:20;27.10;99.90
871;DHT22;422;51.280;7.236;2023-07-13T12:41:51;27.40;99.90
871;DHT22;422;51.280;7.236;2023-07-13T12:44:24;27.50;99.90
871;DHT22;422;51.280;7.236;2023-07-13T12:46:55;27.20;99.90
871;DHT22;422;51.280;7.236;2023-07-13T12:49:25;26.80;99.90
871;DHT22;422;51.280;7.236;2023-07-13T12:51:56;27.30;99.90
871;DHT22;422;51.280;7.236;2023-07-13T12:54:24;27.40;99.90
871;DHT22;422;51.280;7.236;2023-07-13T12:56:54;27.20;99.90
871;DHT22;422;51.280;7.236;2023-07-13T12:59:27;26.70;99.90
871;DHT22;422;51.280;7.236;2023-07-13T13:01:56;26.30;99.90
871;DHT22;422;51.280;7.236;2023-07-13T13:04:23;25.80;99.90
871;DHT22;422;51.280;7.236;2023-07-13T13:07:02;25.20;99.90
871;DHT22;422;51.280;7.236;2023-07-13T13:09:29;25.10;99.90
871;DHT22;422;51.280;7.236;2023-07-13T13:11:58;24.90;99.90
871;DHT22;422;51.280;7.236;2023-07-13T13:14:25;24.40;99.90
871;DHT22;422;51.280;7.236;2023-07-13T13:16:53;23.90;99.90
871;DHT22;422;51.280;7.236;2023-07-13T13:19:22;24.40;99.90
871;DHT22;422;51.280;7.236;2023-07-13T13:21:50;24.80;99.90
871;DHT22;422;51.280;7.236;2023-07-13T13:24:21;24.70;99.90
871;DHT22;422;51.280;7.236;2023-07-13T13:26:52;24.80;99.90
871;DHT22;422;51.280;7.236;2023-07-13T13:29:24;24.60;99.90
871;DHT22;422;51.280;7.236;2023-07-13T13:31:52;25.00;99.90
871;DHT22;422;51.280;7.236;2023-07-13T13:34:20;24.80;99.90
871;DHT22;422;51.280;7.236;2023-07-13T13:36:49;25.30;99.90
871;DHT22;422;51.280;7.236;2023-07-13T13:39:22;26.10;99.90
871;DHT22;422;51.280;7.236;2023-07-13T13:41:51;25.70;99.90
871;DHT22;422;51.280;7.236;2023-07-13T13:44:19;25.30;99.90
871;DHT22;422;51.280;7.236;2023-07-13T13:46:51;24.70;99.90
871;DHT22;422;51.280;7.236;2023-07-13T13:49:21;24.60;99.90
871;DHT22;422;51.280;7.236;2023-07-13T13:51:49;24.50;99.90
871;DHT22;422;51.280;7.236;2023-07-13T13:54:18;24.30;99.90
871;DHT22;422;51.280;7.236;2023-07-13T13:56:47;24.30;99.90
871;DHT22;422;51.280;7.236;2023-07-13T13:59:15;24.10;99.90
871;DHT22;422;51.280;7.236;2023-07-13T14:01:44;23.90;99.90
871;DHT22;422;51.280;7.236;2023-07-13T14:04:17;23.50;99.90
871;DHT22;422;51.280;7.236;2023-07-13T14:06:45;23.10;99.90
871;DHT22;422;51.280;7.236;2023-07-13T14:09:14;22.70;99.90
871;DHT22;422;51.280;7.236;2023-07-13T14:11:44;22.40;99.90
871;DHT22;422;51.280;7.236;2023-07-13T14:14:16;22.20;99.90
871;DHT22;422;51.280;7.236;2023-07-13T14:16:44;22.20;99.90
871;DHT22;422;51.280;7.236;2023-07-13T14:19:12;22.10;99.90
871;DHT22;422;51.280;7.236;2023-07-13T14:21:42;21.90;99.90
871;DHT22;422;51.280;7.236;2023-07-13T14:24:09;21.90;99.90
871;DHT22;422;51.280;7.236;2023-07-13T14:26:38;21.80;99.90
871;DHT22;422;51.280;7.236;2023-07-13T14:29:12;21.80;99.90
871;DHT22;422;51.280;7.236;2023-07-13T14:31:40;21.70;99.90
871;DHT22;422;51.280;7.236;2023-07-13T14:34:11;21.50;99.90
871;DHT22;422;51.280;7.236;2023-07-13T14:36:43;21.50;99.90
871;DHT22;422;51.280;7.236;2023-07-13T14:39:13;21.50;99.90
871;DHT22;422;51.280;7.236;2023-07-13T14:41:41;21.50;99.90
871;DHT22;422;51.280;7.236;2023-07-13T14:44:12;21.50;99.90
871;DHT22;422;51.280;7.236;2023-07-13T14:46:39;21.50;99.90
871;DHT22;422;51.280;7.236;2023-07-13T14:49:15;21.50;99.90
871;DHT22;422;51.280;7.236;2023-07-13T14:51:44;21.60;99.90
871;DHT22;422;51.280;7.236;2023-07-13T14:54:12;21.70;99.90
871;DHT22;422;51.280;7.236;2023-07-13T14:56:39;22.00;99.90
871;DHT22;422;51.280;7.236;2023-07-13T14:59:06;22.60;99.90
871;DHT22;422;51.280;7.236;2023-07-13T15:01:34;23.50;99.90
871;DHT22;422;51.280;7.236;2023-07-13T15:04:02;24.30;99.90
871;DHT22;422;51.280;7.236;2023-07-13T15:06:29;24.10;99.90
871;DHT22;422;51.280;7.236;2023-07-13T15:08:59;24.10;99.90
871;DHT22;422;51.280;7.236;2023-07-13T15:11:26;23.90;99.90
871;DHT22;422;51.280;7.236;2023-07-13T15:13:53;23.50;99.90
871;DHT22;422;51.280;7.236;2023-07-13T15:16:23;23.40;99.90
871;DHT22;422;51.280;7.236;2023-07-13T15:18:51;23.20;99.90
871;DHT22;422;51.280;7.236;2023-07-13T15:21:21;22.90;99.90
871;DHT22;422;51.280;7.236;2023-07-13T15:23:49;22.70;99.90
871;DHT22;422;51.280;7.236;2023-07-13T15:26:18;22.60;99.90
871;DHT22;422;51.280;7.236;2023-07-13T15:28:46;22.50;99.90
871;DHT22;422;51.280;7.236;2023-07-13T15:31:21;22.30;99.90
871;DHT22;422;51.280;7.236;2023-07-13T15:33:49;22.30;99.90
871;DHT22;422;51.280;7.236;2023-07-13T15:36:18;22.30;99.90
871;DHT22;422;51.280;7.236;2023-07-13T15:38:46;22.20;99.90
871;DHT22;422;51.280;7.236;2023-07-13T15:41:20;22.20;99.90
871;DHT22;422;51.280;7.236;2023-07-13T15:43:48;22.20;99.90
871;DHT22;422;51.280;7.236;2023-07-13T15:46:17;22.20;99.90
871;DHT22;422;51.280;7.236;2023-07-13T15:48:45;21.90;99.90
871;DHT22;422;51.280;7.236;2023-07-13T15:51:20;21.20;99.90
871;DHT22;422;51.280;7.236;2023-07-13T15:53:48;20.90;99.90
871;DHT22;422;51.280;7.236;2023-07-13T15:56:20;20.50;99.90
871;DHT22;422;51.280;7.236;2023-07-13T15:58:47;19.80;99.90
871;DHT22;422;51.280;7.236;2023-07-13T16:01:15;19.50;99.90
871;DHT22;422;51.280;7.236;2023-07-13T16:03:43;19.30;99.90
871;DHT22;422;51.280;7.236;2023-07-13T16:06:15;19.30;99.90
871;DHT22;422;51.280;7.236;2023-07-13T16:08:43;19.40;99.90
871;DHT22;422;51.280;7.236;2023-07-13T16:11:24;19.40;99.90
871;DHT22;422;51.280;7.236;2023-07-13T16:13:53;19.60;99.90
871;DHT22;422;51.280;7.236;2023-07-13T16:16:22;19.50;99.90
871;DHT22;422;51.280;7.236;2023-07-13T16:18:51;19.30;1.00
871;DHT22;422;51.280;7.236;2023-07-13T16:21:20;19.30;99.90
871;DHT22;422;51.280;7.236;2023-07-13T16:23:47;19.10;99.90
871;DHT22;422;51.280;7.236;2023-07-13T16:26:34;19.00;1.00
871;DHT22;422;51.280;7.236;2023-07-13T16:29:11;19.10;1.00
871;DHT22;422;51.280;7.236;2023-07-13T16:31:39;19.30;1.00
871;DHT22;422;51.280;7.236;2023-07-13T16:34:07;19.50;1.00
871;DHT22;422;51.280;7.236;2023-07-13T16:36:35;19.30;99.90
871;DHT22;422;51.280;7.236;2023-07-13T16:39:13;19.40;99.90
871;DHT22;422;51.280;7.236;2023-07-13T16:41:43;19.20;99.90
871;DHT22;422;51.280;7.236;2023-07-13T16:44:12;19.10;99.90
871;DHT22;422;51.280;7.236;2023-07-13T16:46:42;19.00;99.90
871;DHT22;422;51.280;7.236;2023-07-13T16:49:23;19.00;99.90